Time;durP1;ratioP1;P1;durP2;ratioP2;P2;SDS_P1;SDS_P2;PMS_P1;PMS_P2;Temp;Humidity;BMP_temperature;BMP_pressure;BME280_temperature;BME280_humidity;BME280_pressure;Samples;Min_cycle;Max_cycle;Signal;HPM_P1;HPM_P2
2022/08/25 00:01:51;;;;;;;5.82;3.10;;;24.00;99.90;;;;;;5051074;28;20595;-52
2022/08/25 00:04:18;;;;;;;4.30;2.72;;;24.00;99.90;;;;;;5051284;28;20232;-50
2022/08/25 00:06:45;;;;;;;4.95;2.60;;;24.00;99.90;;;;;;5051371;28;20607;-54
2022/08/25 00:09:14;;;;;;;6.03;3.38;;;24.00;99.90;;;;;;5051333;28;20182;-50
2022/08/25 00:11:40;;;;;;;5.63;2.90;;;23.00;99.90;;;;;;5051024;28;20190;-49
2022/08/25 00:14:12;;;;;;;4.38;2.70;;;23.90;99.90;;;;;;5050847;28;20223;-52
2022/08/25 00:16:38;;;;;;;3.72;2.97;;;23.90;99.90;;;;;;5054213;28;20163;-52
2022/08/25 00:19:13;;;;;;;3.65;2.80;;;23.90;99.90;;;;;;5054785;28;20602;-52
2022/08/25 00:21:41;;;;;;;4.88;2.60;;;23.80;99.90;;;;;;5054755;28;20171;-52
2022/08/25 00:24:09;;;;;;;5.78;2.65;;;23.80;99.90;;;;;;5054575;28;20163;-53
2022/08/25 00:26:38;;;;;;;4.68;2.65;;;23.80;99.90;;;;;;5054602;28;20631;-54
2022/08/25 00:29:04;;;;;;;5.53;2.78;;;23.80;99.90;;;;;;5054410;28;20217;-52
2022/08/25 00:31:30;;;;;;;2.92;2.60;;;23.80;99.90;;;;;;5054489;28;20560;-53
2022/08/25 00:33:56;;;;;;;2.92;2.40;;;23.80;99.90;;;;;;5054321;28;20166;-53
2022/08/25 00:36:21;;;;;;;4.88;2.75;;;23.80;99.90;;;;;;5054519;28;20244;-53
2022/08/25 00:38:48;;;;;;;4.07;2.85;;;23.70;99.90;;;;;;5054545;28;20693;-52
2022/08/25 00:41:19;;;;;;;3.80;2.50;;;23.70;99.90;;;;;;5054845;28;20170;-53
2022/08/25 00:43:45;;;;;;;3.65;2.67;;;23.70;99.90;;;;;;5054767;28;20170;-52
2022/08/25 00:46:17;;;;;;;2.65;2.45;;;23.70;99.90;;;;;;5054328;28;20514;-52
2022/08/25 00:48:46;;;;;;;4.32;3.25;;;23.70;99.90;;;;;;5054413;28;20163;-53
2022/08/25 00:51:17;;;;;;;4.38;2.58;;;23.60;99.90;;;;;;5053940;28;20257;-52
2022/08/25 00:53:44;;;;;;;5.90;2.90;;;23.60;99.90;;;;;;5054419;28;20741;-53
2022/08/25 00:56:12;;;;;;;3.95;2.58;;;23.60;99.90;;;;;;5053892;28;20171;-52
2022/08/25 00:58:39;;;;;;;4.47;2.60;;;23.60;99.90;;;;;;5053914;28;20210;-53
2022/08/25 01:01:04;;;;;;;4.97;2.42;;;23.60;99.90;;;;;;5053833;28;20209;-53
2022/08/25 01:03:32;;;;;;;5.80;2.92;;;23.60;99.90;;;;;;5053756;28;20571;-53
2022/08/25 01:06:00;;;;;;;3.05;2.78;;;23.50;99.90;;;;;;5054001;28;20216;-53
2022/08/25 01:08:28;;;;;;;2.95;2.55;;;23.50;99.90;;;;;;5053615;28;20174;-53
2022/08/25 01:10:56;;;;;;;3.17;2.85;;;23.50;99.90;;;;;;5053614;28;20536;-53
2022/08/25 01:13:27;;;;;;;4.72;2.85;;;23.50;99.90;;;;;;5053562;28;20268;-53
2022/08/25 01:15:55;;;;;;;3.13;2.53;;;23.50;99.90;;;;;;5053901;28;20356;-53
2022/08/25 01:18:21;;;;;;;4.88;2.63;;;23.40;99.90;;;;;;5053649;28;20217;-53
2022/08/25 01:20:52;;;;;;;2.60;2.40;;;23.40;99.90;;;;;;5053494;28;20172;-44
2022/08/25 01:23:18;;;;;;;4.50;3.08;;;23.40;99.90;;;;;;5053349;28;20197;-52
2022/08/25 01:26:04;;;;;;;3.85;2.53;;;23.40;99.90;;;;;;5053539;28;20557;-52
2022/08/25 01:28:30;;;;;;;3.15;2.83;;;23.30;99.90;;;;;;5052824;28;20169;-50
2022/08/25 01:30:56;;;;;;;6.55;3.03;;;23.30;99.90;;;;;;5053272;28;20178;-52
2022/08/25 01:33:22;;;;;;;7.05;3.03;;;23.20;99.90;;;;;;5053298;28;20249;-52
2022/08/25 01:35:47;;;;;;;5.78;2.97;;;23.00;99.90;;;;;;5053327;28;20167;-47
2022/08/25 01:38:13;;;;;;;7.07;3.22;;;22.90;99.90;;;;;;5053392;28;20213;-52
2022/08/25 01:40:41;;;;;;;5.13;3.03;;;22.90;99.90;;;;;;5053003;28;20175;-49
2022/08/25 01:43:10;;;;;;;5.22;3.03;;;22.90;99.90;;;;;;5053326;28;20175;-51
2022/08/25 01:45:37;;;;;;;9.40;4.82;;;22.80;99.90;;;;;;5052961;28;20175;-52
2022/08/25 01:48:05;;;;;;;9.05;3.28;;;22.70;99.90;;;;;;5052948;28;20584;-53
2022/08/25 01:50:31;;;;;;;5.03;2.55;;;22.70;99.90;;;;;;5053179;28;20251;-53
2022/08/25 01:53:06;;;;;;;4.95;2.90;;;22.70;99.90;;;;;;5052996;28;20545;-53
2022/08/25 01:55:50;;;;;;;5.05;3.13;;;22.60;99.90;;;;;;5052777;28;20656;-53
2022/08/25 01:58:17;;;;;;;4.68;2.95;;;22.50;99.90;;;;;;5052971;28;20206;-53
2022/08/25 02:00:50;;;;;;;3.53;2.92;;;22.50;99.90;;;;;;5053309;28;20253;-53
2022/08/25 02:03:17;;;;;;;6.03;3.40;;;22.40;99.90;;;;;;5053057;28;20607;-53
2022/08/25 02:05:43;;;;;;;6.28;3.35;;;22.40;99.90;;;;;;5052981;28;20163;-53
2022/08/25 02:08:10;;;;;;;6.40;3.10;;;22.40;99.90;;;;;;5052572;28;20178;-53
2022/08/25 02:10:36;;;;;;;4.90;3.10;;;22.40;99.90;;;;;;5052474;28;20163;-53
2022/08/25 02:13:03;;;;;;;5.00;3.13;;;22.30;99.90;;;;;;5052401;28;20261;-53
2022/08/25 02:15:28;;;;;;;5.22;3.00;;;22.10;99.90;;;;;;5052499;28;20186;-52
2022/08/25 02:17:54;;;;;;;2.97;2.67;;;22.00;99.90;;;;;;5052347;28;20241;-53
2022/08/25 02:20:20;;;;;;;3.13;2.83;;;21.90;99.90;;;;;;5052351;28;20171;-53
2022/08/25 02:22:45;;;;;;;3.53;3.00;;;21.90;99.90;;;;;;5052717;28;20166;-53
2022/08/25 02:25:11;;;;;;;4.45;2.50;;;21.80;99.90;;;;;;5052533;28;20211;-53
2022/08/25 02:27:37;;;;;;;4.57;3.10;;;21.90;99.90;;;;;;5052303;28;20254;-53
2022/08/25 02:30:04;;;;;;;3.28;2.63;;;22.00;99.90;;;;;;5052161;28;20182;-53
2022/08/25 02:32:30;;;;;;;3.67;3.03;;;22.00;99.90;;;;;;5052179;28;20186;-52
2022/08/25 02:34:55;;;;;;;4.35;3.30;;;22.00;99.90;;;;;;5052094;28;20521;-53
2022/08/25 02:37:21;;;;;;;4.85;3.33;;;22.00;99.90;;;;;;5052038;28;20574;-53
2022/08/25 02:39:47;;;;;;;5.43;3.00;;;22.00;99.90;;;;;;5052093;28;20167;-47
2022/08/25 02:42:13;;;;;;;3.38;2.88;;;21.90;99.90;;;;;;5052438;28;20627;-53
2022/08/25 02:44:39;;;;;;;3.88;2.92;;;21.90;99.90;;;;;;5051931;28;20638;-53
2022/08/25 02:47:05;;;;;;;5.60;3.58;;;22.00;99.90;;;;;;5052245;28;20175;-53
2022/08/25 02:49:31;;;;;;;5.10;3.17;;;22.00;99.90;;;;;;5051983;28;20217;-53
2022/08/25 02:51:59;;;;;;;2.97;2.67;;;21.90;99.90;;;;;;5051939;28;20166;-53
2022/08/25 02:54:25;;;;;;;3.03;2.83;;;21.90;99.90;;;;;;5052127;28;20257;-53
2022/08/25 02:56:51;;;;;;;3.83;3.38;;;21.80;99.90;;;;;;5052033;28;20174;-52
2022/08/25 02:59:18;;;;;;;4.88;3.50;;;21.70;99.90;;;;;;5051907;28;20170;-47
2022/08/25 03:01:43;;;;;;;4.40;3.42;;;21.70;99.90;;;;;;5052122;28;20579;-53
2022/08/25 03:04:09;;;;;;;4.80;3.33;;;21.70;99.90;;;;;;5051827;28;20174;-53
2022/08/25 03:06:35;;;;;;;3.97;3.10;;;21.60;99.90;;;;;;5051768;28;20238;-54
2022/08/25 03:09:00;;;;;;;7.93;4.30;;;21.60;99.90;;;;;;5051381;28;20171;-53
2022/08/25 03:11:26;;;;;;;7.18;3.10;;;21.60;99.90;;;;;;5051668;28;20189;-53
2022/08/25 03:13:52;;;;;;;5.28;3.13;;;21.40;99.90;;;;;;5051506;28;20315;-53
2022/08/25 03:16:19;;;;;;;8.27;3.58;;;21.40;99.90;;;;;;5051851;28;20540;-52
2022/08/25 03:18:45;;;;;;;7.65;3.47;;;21.30;99.90;;;;;;5052119;28;20210;-53
2022/08/25 03:21:11;;;;;;;4.47;3.00;;;21.20;99.90;;;;;;5051486;28;20316;-52
2022/08/25 03:23:37;;;;;;;7.57;3.03;;;21.30;99.90;;;;;;5051498;28;20175;-52
2022/08/25 03:28:47;;;;;;;8.00;3.30;;;21.30;99.90;;;;;;5051731;28;20224;-53
2022/08/25 03:31:13;;;;;;;6.63;3.30;;;21.30;99.90;;;;;;5051799;28;20565;-53
2022/08/25 03:33:39;;;;;;;4.50;2.80;;;21.30;99.90;;;;;;5051396;28;20170;-52
2022/08/25 03:36:05;;;;;;;5.40;3.20;;;21.20;99.90;;;;;;5051695;28;20175;-53
2022/08/25 03:38:31;;;;;;;4.22;3.15;;;21.30;99.90;;;;;;5051580;28;20210;-53
2022/08/25 03:40:56;;;;;;;3.58;2.80;;;21.30;99.90;;;;;;5051409;28;20212;-52
2022/08/25 03:43:22;;;;;;;6.85;3.17;;;21.30;99.90;;;;;;5051545;28;20626;-53
2022/08/25 03:45:48;;;;;;;7.95;3.13;;;21.20;99.90;;;;;;5051210;28;20171;-52
2022/08/25 03:48:15;;;;;;;4.15;3.08;;;21.20;99.90;;;;;;5051496;28;20167;-53
2022/08/25 03:50:50;;;;;;;8.25;3.40;;;21.10;99.90;;;;;;5053319;28;20167;-52
2022/08/25 03:53:16;;;;;;;7.85;3.35;;;21.20;99.90;;;;;;5055417;28;20197;-53
2022/08/25 03:55:42;;;;;;;6.72;3.55;;;21.20;99.90;;;;;;5055308;28;20194;-53
2022/08/25 03:58:07;;;;;;;4.45;3.17;;;21.20;99.90;;;;;;5054864;28;20248;-53
2022/08/25 04:00:33;;;;;;;5.15;3.63;;;21.10;99.90;;;;;;5055015;28;20194;-52
2022/08/25 04:02:59;;;;;;;4.15;3.05;;;21.10;99.90;;;;;;5054965;28;20171;-53
2022/08/25 04:05:24;;;;;;;4.63;3.58;;;21.20;99.90;;;;;;5054962;28;20170;-52
2022/08/25 04:07:50;;;;;;;5.80;3.40;;;21.20;99.90;;;;;;5054884;28;20264;-53
2022/08/25 04:10:15;;;;;;;7.30;4.38;;;21.10;99.90;;;;;;5055075;28;20174;-51
2022/08/25 04:12:41;;;;;;;7.70;5.25;;;21.30;99.90;;;;;;5054978;28;20491;-52
2022/08/25 04:15:08;;;;;;;9.50;6.43;;;21.30;99.90;;;;;;5054697;28;20530;-52
2022/08/25 04:17:37;;;;;;;13.02;5.57;;;21.30;99.90;;;;;;5054700;28;20273;-53
2022/08/25 04:20:03;;;;;;;9.00;5.28;;;21.30;99.90;;;;;;5054561;28;20174;-51
2022/08/25 04:22:30;;;;;;;7.57;5.03;;;21.30;99.90;;;;;;5054544;28;20181;-52
2022/08/25 04:24:58;;;;;;;5.82;3.25;;;21.30;99.90;;;;;;5054812;28;20198;-53
2022/08/25 04:27:23;;;;;;;3.80;3.03;;;21.30;99.90;;;;;;5054505;28;20162;-51
2022/08/25 04:29:49;;;;;;;4.68;3.05;;;21.20;99.90;;;;;;5054422;28;20220;-52
2022/08/25 04:32:15;;;;;;;3.63;3.33;;;21.10;99.90;;;;;;5054817;28;20197;-52
2022/08/25 04:34:42;;;;;;;3.90;3.30;;;21.00;99.90;;;;;;5054297;28;20635;-51
2022/08/25 04:37:08;;;;;;;6.32;3.15;;;20.90;99.90;;;;;;5054533;28;20217;-53
2022/08/25 04:39:33;;;;;;;3.20;2.90;;;20.90;99.90;;;;;;5054247;28;20258;-52
2022/08/25 04:42:00;;;;;;;6.22;3.70;;;20.90;99.90;;;;;;5054198;28;20254;-53
2022/08/25 04:44:26;;;;;;;4.82;3.08;;;20.90;99.90;;;;;;5054258;28;20692;-52
2022/08/25 04:46:52;;;;;;;3.53;3.22;;;21.00;99.90;;;;;;5052907;28;20482;-52
2022/08/25 04:49:18;;;;;;;5.28;3.55;;;21.00;99.90;;;;;;5053972;28;20170;-53
2022/08/25 04:51:44;;;;;;;3.85;2.85;;;21.00;99.90;;;;;;5054658;28;20173;-52
2022/08/25 04:54:15;;;;;;;4.63;2.90;;;21.00;99.90;;;;;;5053988;28;20174;-51
2022/08/25 04:56:42;;;;;;;5.72;3.50;;;20.90;99.90;;;;;;5054224;28;20182;-50
2022/08/25 04:59:11;;;;;;;3.47;3.13;;;20.90;99.90;;;;;;5053701;28;20232;-49
2022/08/25 05:01:37;;;;;;;5.72;3.03;;;20.90;99.90;;;;;;5053623;28;20174;-49
2022/08/25 05:04:06;;;;;;;3.35;2.80;;;21.00;99.90;;;;;;5053898;28;20657;-51
2022/08/25 05:06:32;;;;;;;6.07;3.22;;;21.00;99.90;;;;;;5053759;28;20182;-47
2022/08/25 05:08:58;;;;;;;8.10;3.40;;;21.00;99.90;;;;;;5053708;28;20163;-50
2022/08/25 05:11:25;;;;;;;3.58;3.00;;;21.00;99.90;;;;;;5052530;28;20597;-51
2022/08/25 05:13:52;;;;;;;5.28;3.38;;;21.10;99.90;;;;;;5053474;28;20744;-50
2022/08/25 05:16:19;;;;;;;5.00;3.40;;;21.10;99.90;;;;;;5053556;28;20574;-52
2022/08/25 05:18:45;;;;;;;6.35;2.90;;;21.20;99.90;;;;;;5053836;28;20229;-47
2022/08/25 05:21:20;;;;;;;7.00;3.80;;;21.10;99.90;;;;;;5053790;28;20166;-49
2022/08/25 05:23:46;;;;;;;6.05;3.60;;;21.10;99.90;;;;;;5053622;28;20740;-44
2022/08/25 05:26:21;;;;;;;8.98;3.78;;;21.10;99.90;;;;;;5053985;28;20174;-50
2022/08/25 05:28:51;;;;;;;5.90;3.42;;;21.20;99.90;;;;;;5053333;28;20170;-51
2022/08/25 05:31:18;;;;;;;3.67;3.08;;;21.30;99.90;;;;;;5053316;28;20209;-49
2022/08/25 05:33:44;;;;;;;4.68;2.80;;;21.40;99.90;;;;;;5053543;28;20626;-52
2022/08/25 05:36:12;;;;;;;6.15;3.20;;;21.50;99.90;;;;;;5053442;28;20626;-51
2022/08/25 05:38:39;;;;;;;8.05;3.80;;;21.60;99.90;;;;;;5053114;28;20674;-52
2022/08/25 05:41:09;;;;;;;4.15;3.30;;;21.50;99.90;;;;;;5053271;28;20173;-51
2022/08/25 05:43:40;;;;;;;6.88;3.53;;;21.60;99.90;;;;;;5052900;28;20626;-51
2022/08/25 05:46:06;;;;;;;4.00;3.10;;;21.70;99.90;;;;;;5052973;28;20171;-51
2022/08/25 05:48:32;;;;;;;31.17;5.75;;;21.80;99.90;;;;;;5052838;28;20530;-52
2022/08/25 05:51:05;;;;;;;9.88;3.67;;;21.90;99.90;;;;;;5053101;28;20170;-51
2022/08/25 05:53:32;;;;;;;9.52;4.10;;;22.00;99.90;;;;;;5053044;28;20166;-51
2022/08/25 05:55:59;;;;;;;8.15;4.05;;;22.00;99.90;;;;;;5052755;28;20541;-49
2022/08/25 05:58:29;;;;;;;12.15;4.45;;;21.90;99.90;;;;;;5052664;28;20202;-51
2022/08/25 06:00:56;;;;;;;4.95;3.40;;;22.10;99.90;;;;;;5052870;28;20171;-50
2022/08/25 06:03:22;;;;;;;4.47;3.20;;;22.20;99.90;;;;;;5052565;28;20173;-52
2022/08/25 06:05:48;;;;;;;5.93;3.65;;;22.30;99.90;;;;;;5052706;28;20162;-49
2022/08/25 06:08:14;;;;;;;6.25;3.78;;;22.30;99.90;;;;;;5052891;28;20178;-47
2022/08/25 06:10:40;;;;;;;5.85;3.85;;;22.40;99.90;;;;;;5053046;28;20169;-52
2022/08/25 06:13:06;;;;;;;9.05;4.20;;;22.40;99.90;;;;;;5050445;28;20579;-48
2022/08/25 06:15:32;;;;;;;7.93;4.88;;;22.50;99.90;;;;;;5052406;28;20163;-49
2022/08/25 06:18:00;;;;;;;4.80;3.55;;;22.60;99.90;;;;;;5052592;28;20212;-51
2022/08/25 06:20:27;;;;;;;10.30;5.80;;;22.60;99.90;;;;;;5052712;28;20618;-47
2022/08/25 06:22:53;;;;;;;9.93;4.28;;;22.70;99.90;;;;;;5052350;28;20194;-49
2022/08/25 06:25:21;;;;;;;8.07;4.18;;;22.80;99.90;;;;;;5052585;28;20249;-51
2022/08/25 06:27:47;;;;;;;8.35;3.97;;;22.90;99.90;;;;;;5052447;28;20178;-48
2022/08/25 06:30:14;;;;;;;5.97;4.32;;;23.00;99.90;;;;;;5052497;28;20301;-50
2022/08/25 06:32:42;;;;;;;6.45;4.07;;;23.10;99.90;;;;;;5052443;28;20528;-50
2022/08/25 06:35:16;;;;;;;8.43;4.82;;;23.20;99.90;;;;;;5052191;28;20162;-49
2022/08/25 06:37:42;;;;;;;5.00;3.03;;;23.20;99.90;;;;;;5052364;28;20739;-46
2022/08/25 06:40:09;;;;;;;6.07;3.00;;;23.30;99.90;;;;;;5052096;28;20190;-47
2022/08/25 06:42:36;;;;;;;7.72;3.63;;;23.40;99.90;;;;;;5051982;28;20162;-44
2022/08/25 06:45:01;;;;;;;7.38;3.58;;;23.50;99.90;;;;;;5051979;28;20237;-48
2022/08/25 06:47:27;;;;;;;7.50;3.72;;;23.50;99.90;;;;;;5051937;28;20626;-46
2022/08/25 06:49:53;;;;;;;6.32;4.03;;;23.70;99.90;;;;;;5052133;28;20544;-49
2022/08/25 06:52:18;;;;;;;9.50;3.28;;;23.70;99.90;;;;;;5051930;28;20525;-48
2022/08/25 06:54:44;;;;;;;5.30;3.85;;;23.80;99.90;;;;;;5050696;28;20175;-44
2022/08/25 06:57:10;;;;;;;8.35;3.53;;;23.90;99.90;;;;;;5050928;28;20198;-46
2022/08/25 06:59:36;;;;;;;5.70;4.32;;;23.90;99.90;;;;;;5050047;28;20581;-44
2022/08/25 07:02:04;;;;;;;4.78;3.80;;;24.10;99.90;;;;;;5050570;28;20254;-47
2022/08/25 07:04:30;;;;;;;5.75;3.47;;;24.20;99.90;;;;;;5050286;28;20697;-47
2022/08/25 07:06:56;;;;;;;3.67;3.22;;;24.20;99.90;;;;;;5050233;28;20566;-44
2022/08/25 07:09:21;;;;;;;6.47;4.03;;;24.30;99.90;;;;;;5050202;28;20166;-43
2022/08/25 07:11:47;;;;;;;5.18;3.80;;;24.30;99.90;;;;;;5050138;28;20171;-43
2022/08/25 07:14:15;;;;;;;5.78;3.83;;;24.50;99.90;;;;;;5050539;28;20549;-49
2022/08/25 07:16:41;;;;;;;9.43;4.03;;;24.50;99.90;;;;;;5050441;28;20637;-43
2022/08/25 07:19:07;;;;;;;4.38;3.97;;;24.60;99.90;;;;;;5050099;28;20210;-49
2022/08/25 07:21:36;;;;;;;5.57;4.05;;;24.70;99.90;;;;;;5049957;28;20174;-47
2022/08/25 07:24:11;;;;;;;4.53;3.20;;;24.80;99.90;;;;;;5050070;28;20547;-48
2022/08/25 07:26:39;;;;;;;5.95;3.17;;;24.80;99.90;;;;;;5052519;28;20569;-47
2022/08/25 07:29:11;;;;;;;4.97;3.47;;;24.90;99.90;;;;;;5054168;28;20646;-44
2022/08/25 07:31:37;;;;;;;6.45;3.60;;;25.00;99.90;;;;;;5054000;28;20177;-47
2022/08/25 07:36:47;;;;;;;6.85;3.15;;;25.40;99.90;;;;;;5054021;28;20589;-44
2022/08/25 07:39:13;;;;;;;4.93;2.88;;;25.50;99.90;;;;;;5054332;28;20202;-49
2022/08/25 07:41:40;;;;;;;4.80;2.97;;;25.60;99.90;;;;;;5053651;28;20174;-47
2022/08/25 07:44:08;;;;;;;6.20;3.17;;;25.50;99.90;;;;;;5053843;28;20668;-47
2022/08/25 07:46:33;;;;;;;4.95;2.80;;;25.40;99.90;;;;;;5053851;28;20167;-44
2022/08/25 07:48:59;;;;;;;6.10;3.65;;;25.60;99.90;;;;;;5053917;28;20300;-45
2022/08/25 07:51:25;;;;;;;3.10;2.80;;;25.60;99.90;;;;;;5053723;28;20197;-44
2022/08/25 07:53:50;;;;;;;7.85;3.05;;;25.80;99.90;;;;;;5054086;28;20240;-48
2022/08/25 07:56:17;;;;;;;3.92;2.97;;;25.90;99.90;;;;;;5053612;28;20166;-48
2022/08/25 07:58:43;;;;;;;6.22;3.10;;;26.10;99.90;;;;;;5054217;28;20214;-46
2022/08/25 08:01:15;;;;;;;5.10;3.30;;;26.00;99.90;;;;;;5053968;28;20162;-43
2022/08/25 08:03:41;;;;;;;5.10;3.30;;;26.10;99.90;;;;;;5054159;28;20170;-43
2022/08/25 08:06:08;;;;;;;3.78;2.60;;;26.30;99.90;;;;;;5053721;28;20182;-43
2022/08/25 08:08:36;;;;;;;5.22;3.00;;;26.30;99.90;;;;;;5053464;28;20174;-43
2022/08/25 08:11:02;;;;;;;9.15;3.00;;;26.50;99.90;;;;;;5053781;28;20202;-43
2022/08/25 08:13:28;;;;;;;3.30;3.00;;;26.50;99.90;;;;;;5053247;28;20315;-44
2022/08/25 08:15:54;;;;;;;5.75;3.03;;;26.50;99.90;;;;;;5053387;28;20180;-46
2022/08/25 08:18:20;;;;;;;3.60;2.90;;;26.70;99.90;;;;;;5053179;28;20205;-48
2022/08/25 08:20:47;;;;;;;9.32;3.25;;;26.80;99.90;;;;;;5053327;28;20573;-48
2022/08/25 08:23:13;;;;;;;5.50;3.30;;;26.90;99.90;;;;;;5053518;28;20227;-46
2022/08/25 08:25:39;;;;;;;5.25;3.00;;;27.10;99.90;;;;;;5053545;28;20185;-49
2022/08/25 08:28:05;;;;;;;9.52;3.97;;;27.10;99.90;;;;;;5053110;28;20630;-48
2022/08/25 08:30:30;;;;;;;5.35;3.38;;;27.20;99.90;;;;;;5051667;28;20206;-49
2022/08/25 08:32:56;;;;;;;3.50;3.10;;;27.30;99.90;;;;;;5053266;28;20220;-49
2022/08/25 08:35:22;;;;;;;8.85;3.38;;;27.30;99.90;;;;;;5052687;28;20166;-51
2022/08/25 08:37:47;;;;;;;5.85;3.10;;;27.40;99.90;;;;;;5052680;28;20210;-47
2022/08/25 08:40:18;;;;;;;5.63;3.53;;;27.40;99.90;;;;;;5053191;28;20206;-47
2022/08/25 08:43:05;;;;;;;7.53;3.20;;;27.40;99.90;;;;;;5053250;28;20540;-49
2022/08/25 08:45:49;;;;;;;4.35;3.17;;;27.70;99.90;;;;;;5053127;28;20525;-51
2022/08/25 08:48:33;;;;;;;4.55;2.97;;;27.80;99.90;;;;;;5053013;28;20174;-45
2022/08/25 08:51:11;;;;;;;6.32;3.42;;;27.90;99.90;;;;;;5053166;28;20201;-52
2022/08/25 08:53:47;;;;;;;10.55;3.20;;;28.00;99.90;;;;;;5052739;28;20170;-52
2022/08/25 08:56:17;;;;;;;3.63;2.95;;;28.10;99.90;;;;;;5052919;28;20625;-51
2022/08/25 08:58:50;;;;;;;5.63;2.95;;;28.10;99.90;;;;;;5052799;28;20549;-51
2022/08/25 09:01:33;;;;;;;3.53;3.22;;;28.10;99.90;;;;;;5052575;28;20265;-51
2022/08/25 09:04:11;;;;;;;3.92;2.80;;;28.30;99.90;;;;;;5052451;28;20170;-52
2022/08/25 09:06:42;;;;;;;7.25;3.33;;;28.40;99.90;;;;;;5052683;28;20182;-52
2022/08/25 09:09:11;;;;;;;4.25;2.85;;;28.60;99.90;;;;;;5052422;28;20178;-51
2022/08/25 09:12:22;;;;;;;3.20;2.90;;;28.60;99.90;;;;;;5052674;28;20517;-52
2022/08/25 09:15:13;;;;;;;5.07;2.95;;;28.70;99.90;;;;;;5032620;28;20218;-49
2022/08/25 09:18:04;;;;;;;3.95;3.47;;;28.70;99.90;;;;;;5052536;28;20569;-51
2022/08/25 09:20:37;;;;;;;9.45;3.42;;;28.70;99.90;;;;;;5052361;28;20188;-51
2022/08/25 09:23:24;;;;;;;7.47;3.90;;;28.70;99.90;;;;;;5052222;28;20173;-47
2022/08/25 09:26:11;;;;;;;3.63;3.00;;;28.80;99.90;;;;;;5052053;28;20177;-44
2022/08/25 09:28:48;;;;;;;4.97;4.20;;;28.90;99.90;;;;;;5049998;28;20170;-46
2022/08/25 09:31:30;;;;;;;8.68;4.03;;;29.00;99.90;;;;;;5051849;28;20223;-46
2022/08/25 09:33:58;;;;;;;6.32;3.08;;;29.20;99.90;;;;;;5051926;28;20198;-45
2022/08/25 09:36:24;;;;;;;5.30;3.00;;;29.30;99.90;;;;;;5051754;28;20185;-50
2022/08/25 09:38:50;;;;;;;6.80;5.07;;;29.30;99.90;;;;;;5050472;28;20205;-44
2022/08/25 09:41:34;;;;;;;7.95;4.70;;;29.40;99.90;;;;;;5051802;28;20170;-44
2022/08/25 09:43:59;;;;;;;4.20;3.30;;;29.60;99.90;;;;;;5051741;28;20174;-44
2022/08/25 09:46:28;;;;;;;10.43;3.17;;;29.80;99.90;;;;;;5051698;28;20300;-46
2022/08/25 09:49:09;;;;;;;7.05;3.92;;;29.70;99.90;;;;;;5050373;28;20159;-44
2022/08/25 09:51:40;;;;;;;5.75;4.18;;;29.80;99.90;;;;;;5051600;28;20191;-45
2022/08/25 09:54:18;;;;;;;9.43;5.32;;;29.80;99.90;;;;;;5051618;28;20185;-44
2022/08/25 09:57:00;;;;;;;4.30;3.33;;;30.00;99.90;;;;;;5051424;28;20542;-44
2022/08/25 09:59:35;;;;;;;6.68;4.03;;;30.00;99.90;;;;;;5051326;28;20220;-45
2022/08/25 10:02:22;;;;;;;4.38;3.70;;;29.90;99.90;;;;;;5051297;28;20184;-44
2022/08/25 10:04:48;;;;;;;4.15;3.75;;;29.90;99.90;;;;;;5051555;28;20173;-44
2022/08/25 10:07:32;;;;;;;4.05;3.65;;;30.10;99.90;;;;;;5051605;28;20173;-44
2022/08/25 10:10:01;;;;;;;5.18;3.40;;;30.40;99.90;;;;;;5051318;28;20158;-44
2022/08/25 10:12:39;;;;;;;7.00;4.38;;;30.50;99.90;;;;;;5050987;28;20599;-45
2022/08/25 10:15:18;;;;;;;3.78;3.30;;;30.40;99.90;;;;;;5051146;28;20249;-45
2022/08/25 10:17:44;;;;;;;7.78;5.05;;;30.40;99.90;;;;;;5050963;28;20685;-44
2022/08/25 10:20:09;;;;;;;5.22;3.03;;;30.60;99.90;;;;;;5051431;28;20196;-44
2022/08/25 10:22:39;;;;;;;9.32;3.08;;;30.80;99.90;;;;;;5050952;28;20602;-44
2022/08/25 10:25:08;;;;;;;8.05;5.85;;;30.80;99.90;;;;;;5051024;28;20166;-44
2022/08/25 10:27:58;;;;;;;4.38;3.13;;;30.90;99.90;;;;;;5050704;28;20178;-44
2022/08/25 10:30:32;;;;;;;7.35;4.93;;;31.10;99.90;;;;;;5050765;28;20180;-45
2022/08/25 10:33:09;;;;;;;5.07;3.35;;;31.10;99.90;;;;;;5050827;28;20162;-44
2022/08/25 10:35:53;;;;;;;7.78;4.55;;;31.30;99.90;;;;;;5050511;28;20645;-47
2022/08/25 10:38:46;;;;;;;3.33;2.92;;;31.40;99.90;;;;;;5050619;28;20205;-51
2022/08/25 10:41:17;;;;;;;8.40;3.67;;;31.30;99.90;;;;;;5050869;28;20252;-50
2022/08/25 10:45:41;;;;;;;4.70;3.72;;;31.10;99.90;;;;;;5050688;28;20170;-43
2022/08/25 10:47:20;;;;;;;6.72;3.78;;;31.40;99.90;;;;;;5050549;28;20177;-44
2022/08/25 10:50:12;;;;;;;4.35;3.28;;;31.50;99.90;;;;;;5049833;28;20223;-44
2022/08/25 10:53:02;;;;;;;12.25;8.13;;;31.60;99.90;;;;;;5049122;28;20320;-44
2022/08/25 10:55:37;;;;;;;3.45;2.90;;;31.60;99.90;;;;;;5050222;28;20526;-44
2022/08/25 10:58:09;;;;;;;5.47;3.40;;;31.50;99.90;;;;;;5050174;28;20734;-44
2022/08/25 11:00:45;;;;;;;3.45;3.13;;;31.60;99.90;;;;;;5048345;28;20467;-48
2022/08/25 11:03:13;;;;;;;3.30;2.95;;;31.60;99.90;;;;;;5050871;28;20267;-45
2022/08/25 11:05:56;;;;;;;5.38;3.00;;;31.60;99.90;;;;;;5049090;28;20170;-44
2022/08/25 11:08:32;;;;;;;5.00;3.45;;;31.80;99.90;;;;;;5050447;28;20202;-43
2022/08/25 11:11:28;;;;;;;6.10;4.00;;;31.80;99.90;;;;;;5049920;28;20311;-43
2022/08/25 11:14:05;;;;;;;6.93;3.60;;;32.00;98.10;;;;;;5049704;28;20581;-44
2022/08/25 11:16:51;;;;;;;6.78;4.18;;;31.90;98.00;;;;;;5050169;28;20178;-46
2022/08/25 11:19:19;;;;;;;3.83;3.50;;;32.10;98.50;;;;;;5049755;28;20266;-52
2022/08/25 11:22:11;;;;;;;6.13;3.10;;;32.30;98.70;;;;;;5050217;28;20186;-43
2022/08/25 11:25:05;;;;;;;3.78;2.88;;;32.20;97.90;;;;;;5048360;28;20680;-46
2022/08/25 11:27:53;;;;;;;5.65;4.57;;;32.20;98.10;;;;;;5050078;28;20664;-45
2022/08/25 11:30:19;;;;;;;4.05;3.13;;;32.60;97.60;;;;;;5049888;28;20166;-44
2022/08/25 11:32:50;;;;;;;4.45;3.92;;;32.40;95.20;;;;;;5050072;28;20648;-44
2022/08/25 11:35:19;;;;;;;9.32;4.72;;;32.40;95.10;;;;;;5048835;28;20174;-45
2022/08/25 11:37:57;;;;;;;4.18;3.33;;;32.70;95.40;;;;;;5049958;28;20285;-47
2022/08/25 11:40:51;;;;;;;5.72;2.78;;;32.50;94.00;;;;;;5049979;28;20695;-44
2022/08/25 11:43:35;;;;;;;9.68;3.97;;;32.40;93.60;;;;;;5042258;28;20182;-45
2022/08/25 11:46:30;;;;;;;7.93;4.85;;;32.40;93.90;;;;;;5050273;28;20189;-44
2022/08/25 11:49:01;;;;;;;3.00;2.42;;;32.40;92.90;;;;;;5048676;28;20738;-52
2022/08/25 11:51:30;;;;;;;9.90;5.68;;;32.60;92.10;;;;;;5049895;28;20174;-45
2022/08/25 11:54:33;;;;;;;5.15;2.85;;;32.60;92.00;;;;;;5049886;28;20661;-44
2022/08/25 11:57:03;;;;;;;7.18;4.30;;;32.70;92.40;;;;;;5046146;28;20181;-46
2022/08/25 11:59:50;;;;;;;5.43;3.80;;;32.70;92.40;;;;;;5050006;28;20218;-47
2022/08/25 12:02:46;;;;;;;6.68;3.75;;;32.70;91.40;;;;;;5049876;28;20174;-48
2022/08/25 12:05:20;;;;;;;4.57;3.00;;;32.70;91.30;;;;;;5050456;28;20188;-46
2022/08/25 12:07:48;;;;;;;4.47;3.13;;;32.70;91.30;;;;;;5050016;28;20188;-46
2022/08/25 12:10:18;;;;;;;4.90;3.25;;;32.80;90.60;;;;;;5049854;28;20228;-45
2022/08/25 12:13:22;;;;;;;4.10;2.60;;;32.90;90.10;;;;;;5052578;28;20758;-45
2022/08/25 12:15:47;;;;;;;3.97;2.80;;;32.80;88.30;;;;;;5053529;28;20169;-53
2022/08/25 12:18:39;;;;;;;3.33;2.58;;;33.00;89.00;;;;;;5053720;28;20208;-51
2022/08/25 12:21:04;;;;;;;16.55;9.70;;;33.10;87.50;;;;;;5053648;28;20197;-51
2022/08/25 12:23:36;;;;;;;8.98;4.13;;;33.20;90.10;;;;;;5053435;28;20202;-52
2022/08/25 12:26:30;;;;;;;3.38;3.03;;;33.00;88.70;;;;;;5053211;28;20176;-51
2022/08/25 12:29:15;;;;;;;6.72;4.63;;;33.10;90.10;;;;;;5043180;28;20242;-52
2022/08/25 12:31:57;;;;;;;4.55;3.67;;;33.10;87.00;;;;;;5053203;28;20633;-52
2022/08/25 12:34:35;;;;;;;7.05;4.80;;;33.10;84.60;;;;;;5053359;28;20220;-53
2022/08/25 12:37:19;;;;;;;9.05;6.65;;;33.10;83.20;;;;;;5053056;28;20204;-53
2022/08/25 12:39:56;;;;;;;9.85;5.97;;;33.10;81.60;;;;;;5053225;28;20178;-52
2022/08/25 12:42:30;;;;;;;3.00;2.70;;;33.30;81.50;;;;;;5052625;28;20166;-52
2022/08/25 12:45:24;;;;;;;6.55;3.13;;;33.20;78.60;;;;;;5052766;28;20510;-51
2022/08/25 12:47:52;;;;;;;3.85;2.67;;;33.30;79.20;;;;;;5052707;28;20473;-51
2022/08/25 12:50:38;;;;;;;3.55;2.95;;;33.40;78.80;;;;;;5052721;28;20227;-48
2022/08/25 12:53:16;;;;;;;10.55;5.78;;;33.20;75.00;;;;;;5052472;28;20243;-47
2022/08/25 12:55:58;;;;;;;3.75;3.00;;;33.40;75.00;;;;;;5051840;28;20178;-50
2022/08/25 12:58:33;;;;;;;2.90;2.22;;;33.40;74.00;;;;;;5052390;28;20292;-50
2022/08/25 13:01:14;;;;;;;4.70;2.45;;;33.40;72.80;;;;;;5053043;28;20181;-51
2022/08/25 13:03:57;;;;;;;3.13;2.80;;;33.60;74.60;;;;;;5052765;28;20170;-49
2022/08/25 13:06:29;;;;;;;6.95;3.67;;;33.50;73.60;;;;;;5051384;28;20166;-47
2022/08/25 13:09:23;;;;;;;3.67;2.50;;;33.50;75.80;;;;;;5032415;28;20572;-49
2022/08/25 13:12:18;;;;;;;3.40;2.30;;;33.40;72.50;;;;;;5023888;28;20183;-49